createdAt,value
2018-11-27T10:54:55.110Z,17.90
2018-11-27T10:57:27.815Z,17.05
2018-11-27T11:00:00.460Z,18.27
2018-11-27T11:02:33.621Z,17.92
2018-11-27T11:05:06.485Z,17.67
2018-11-27T11:07:39.712Z,16.00
2018-11-27T11:10:12.432Z,15.60
2018-11-27T11:12:45.227Z,15.10
2018-11-27T11:15:18.012Z,16.10
2018-11-27T11:17:52.452Z,16.10
2018-11-27T11:20:25.169Z,14.45
2018-11-27T11:22:58.444Z,14.98
2018-11-27T11:25:32.557Z,14.23
2018-11-27T11:28:06.157Z,14.50
2018-11-27T11:30:39.455Z,15.85
2018-11-27T11:33:12.254Z,13.85
2018-11-27T11:35:44.926Z,15.28
2018-11-27T11:38:17.582Z,15.10
2018-11-27T11:40:50.268Z,14.30
2018-11-27T11:43:22.899Z,14.38
2018-11-27T11:45:55.471Z,15.13
2018-11-27T11:48:28.070Z,15.58
2018-11-27T11:51:00.711Z,17.50
2018-11-27T11:53:33.404Z,16.20
2018-11-27T11:56:07.460Z,16.25
2018-11-27T11:58:40.117Z,15.70
2018-11-27T12:01:12.952Z,13.40
2018-11-27T12:03:45.756Z,14.33
2018-11-27T12:06:23.739Z,16.23
2018-11-27T12:08:56.427Z,14.43
2018-11-27T12:11:29.735Z,14.25
2018-11-27T12:14:03.402Z,16.25
2018-11-27T12:16:38.729Z,15.48
2018-11-27T12:19:13.269Z,14.25
2018-11-27T12:21:45.953Z,16.25
2018-11-27T12:24:21.559Z,14.00
2018-11-27T12:26:54.184Z,13.25
2018-11-27T12:29:26.800Z,14.00
2018-11-27T12:31:59.552Z,13.88
2018-11-27T12:34:32.249Z,15.83
2018-11-27T12:37:04.982Z,15.72
2018-11-27T12:39:37.563Z,15.03
2018-11-27T12:42:25.020Z,14.80
2018-11-27T12:44:57.591Z,15.32
2018-11-27T12:47:30.212Z,14.93
2018-11-27T12:50:02.957Z,14.18
2018-11-27T12:52:36.806Z,14.90
2018-11-27T12:55:11.385Z,14.70
2018-11-27T12:57:44.071Z,15.30
2018-11-27T13:00:21.557Z,15.70
2018-11-27T13:02:54.226Z,15.72
2018-11-27T13:05:28.087Z,16.97
2018-11-27T13:08:02.307Z,15.80
2018-11-27T13:10:34.977Z,14.25
2018-11-27T13:13:07.625Z,17.73
2018-11-27T13:15:40.901Z,13.75
2018-11-27T13:18:13.604Z,15.30
2018-11-27T13:20:46.330Z,15.70
2018-11-27T13:23:19.119Z,15.70
2018-11-27T13:25:51.883Z,13.98
2018-11-27T13:28:24.488Z,17.07
2018-11-27T13:31:00.899Z,15.43
2018-11-27T13:33:39.279Z,17.32
2018-11-27T13:36:11.980Z,15.85
2018-11-27T13:38:44.807Z,16.10
2018-11-27T13:41:17.570Z,16.80
2018-11-27T13:43:50.297Z,15.03
2018-11-27T13:46:22.944Z,17.25
2018-11-27T13:48:55.626Z,15.30
2018-11-27T13:51:28.321Z,16.23
2018-11-27T13:54:01.064Z,16.37
2018-11-27T13:56:34.318Z,16.17
2018-11-27T13:59:06.557Z,15.60
2018-11-27T14:01:39.362Z,16.45
2018-11-27T14:04:11.972Z,17.48
2018-11-27T14:06:44.616Z,15.90
2018-11-27T14:09:17.341Z,16.17
2018-11-27T14:11:49.951Z,15.48
2018-11-27T14:14:22.608Z,14.95
2018-11-27T14:16:55.177Z,17.73
2018-11-27T14:19:28.790Z,16.65
2018-11-27T14:22:01.561Z,14.65
2018-11-27T14:24:34.200Z,14.60
2018-11-27T14:27:06.850Z,16.30
2018-11-27T14:29:39.613Z,17.37
2018-11-27T14:32:12.210Z,15.25
2018-11-27T14:34:44.865Z,14.47
2018-11-27T14:37:17.444Z,15.60
2018-11-27T14:39:50.165Z,14.87
2018-11-27T14:42:22.856Z,14.30
2018-11-27T14:44:56.504Z,15.72
2018-11-27T14:47:29.626Z,13.50
2018-11-27T14:50:04.165Z,13.18
2018-11-27T14:52:35.114Z,12.73
2018-11-27T14:55:10.755Z,14.43
2018-11-27T14:57:43.551Z,15.60
2018-11-27T15:00:19.470Z,15.65
2018-11-27T15:02:52.243Z,14.70
2018-11-27T15:05:28.491Z,14.00
2018-11-27T15:08:01.932Z,13.88
2018-11-27T15:10:34.603Z,14.28
2018-11-27T15:13:08.653Z,14.50
2018-11-27T15:15:41.458Z,15.60
2018-11-27T15:18:14.158Z,15.90
2018-11-27T15:20:46.848Z,14.45
2018-11-27T15:23:19.649Z,12.95
2018-11-27T15:25:52.739Z,14.30
2018-11-27T15:28:25.456Z,14.95
2018-11-27T15:30:58.243Z,11.95
2018-11-27T15:33:30.991Z,15.50
2018-11-27T15:36:03.741Z,14.87
2018-11-27T15:38:36.429Z,14.75
2018-11-27T15:41:09.130Z,15.88
2018-11-27T15:43:41.874Z,14.25
2018-11-27T15:46:14.620Z,15.03
2018-11-27T15:48:47.235Z,15.40
2018-11-27T15:51:19.860Z,14.20
2018-11-27T15:53:52.817Z,15.15
2018-11-27T15:56:25.455Z,21.97
2018-11-27T15:58:58.127Z,15.60
2018-11-27T16:01:30.781Z,17.92
2018-11-27T16:04:03.798Z,27.93
2018-11-27T16:06:36.478Z,21.70
2018-11-27T16:09:10.157Z,20.60
2018-11-27T16:11:42.792Z,18.15
2018-11-27T16:14:15.414Z,18.37
2018-11-27T16:16:48.109Z,17.27
2018-11-27T16:19:20.810Z,19.42
2018-11-27T16:21:53.392Z,19.07
2018-11-27T16:24:25.989Z,16.12
2018-11-27T16:26:58.650Z,15.88
2018-11-27T16:29:31.279Z,16.23
2018-11-27T16:32:04.301Z,14.45
2018-11-27T16:34:36.900Z,17.10
2018-11-27T16:37:09.630Z,17.00
2018-11-27T16:39:43.200Z,17.90
2018-11-27T16:42:15.877Z,19.90
2018-11-27T16:44:48.511Z,18.98
2018-11-27T16:47:21.348Z,20.70
2018-11-27T16:49:53.972Z,21.57
2018-11-27T16:52:26.652Z,19.25
2018-11-27T16:54:59.307Z,21.77
2018-11-27T16:57:32.041Z,19.15
2018-11-27T17:00:10.384Z,21.17
2018-11-27T17:02:43.124Z,20.77
2018-11-27T17:05:15.872Z,22.98
2018-11-27T17:07:48.597Z,21.90
2018-11-27T17:10:21.539Z,23.55
2018-11-27T17:12:55.437Z,23.20
2018-11-27T17:15:28.285Z,23.65
2018-11-27T17:18:01.008Z,24.90
2018-11-27T17:20:35.246Z,24.72
2018-11-27T17:23:12.523Z,26.55
2018-11-27T17:25:45.350Z,26.10
2018-11-27T17:28:20.771Z,25.62
2018-11-27T17:31:00.359Z,27.55
2018-11-27T17:33:37.099Z,24.90
2018-11-27T17:36:10.243Z,27.52
2018-11-27T17:38:42.968Z,25.72
2018-11-27T17:41:16.273Z,25.20
2018-11-27T17:43:49.039Z,29.12
2018-11-27T17:46:21.815Z,26.10
2018-11-27T17:48:54.616Z,27.13
2018-11-27T17:51:27.288Z,26.15
2018-11-27T17:54:00.124Z,26.97
2018-11-27T17:56:32.828Z,26.93
2018-11-27T17:59:05.532Z,28.77
2018-11-27T18:01:38.214Z,28.50
2018-11-27T18:04:10.819Z,29.27
2018-11-27T18:06:43.478Z,28.70
2018-11-27T18:09:16.234Z,28.65
2018-11-27T18:11:48.951Z,29.70
2018-11-27T18:14:21.783Z,28.73
2018-11-27T18:16:54.462Z,29.05
2018-11-27T18:19:27.183Z,29.00
2018-11-27T18:21:59.985Z,29.72
2018-11-27T18:24:32.684Z,30.35
2018-11-27T18:27:05.432Z,29.55
2018-11-27T18:29:38.220Z,32.42
2018-11-27T18:32:10.959Z,32.70
2018-11-27T18:34:43.654Z,31.82
2018-11-27T18:37:16.490Z,30.68
2018-11-27T18:39:49.217Z,32.20
2018-11-27T18:42:21.961Z,29.75
2018-11-27T18:44:54.621Z,28.02
2018-11-27T18:47:27.338Z,29.50
2018-11-27T18:50:00.046Z,29.70
2018-11-27T18:52:32.722Z,28.83
2018-11-27T18:55:07.914Z,28.00
2018-11-27T18:57:41.972Z,27.65
2018-11-27T19:00:17.188Z,27.55
2018-11-27T19:02:50.010Z,26.68
2018-11-27T19:05:22.852Z,26.70
2018-11-27T19:07:55.525Z,25.97
2018-11-27T19:10:29.673Z,29.67
2018-11-27T19:13:03.321Z,28.65
2018-11-27T19:15:39.655Z,28.70
2018-11-27T19:18:23.075Z,28.65
2018-11-27T19:20:55.849Z,26.48
2018-11-27T19:23:28.580Z,27.75
2018-11-27T19:26:01.350Z,26.02
2018-11-27T19:28:34.119Z,28.12
2018-11-27T19:31:06.857Z,28.67
2018-11-27T19:33:39.582Z,26.65
2018-11-27T19:36:12.377Z,26.68
2018-11-27T19:38:45.029Z,27.30
2018-11-27T19:41:18.207Z,26.00
2018-11-27T19:43:50.535Z,26.90
2018-11-27T19:46:24.138Z,26.45
2018-11-27T19:48:56.877Z,27.55
2018-11-27T19:51:29.742Z,24.00
2018-11-27T19:54:02.479Z,26.37
2018-11-27T19:56:35.277Z,27.40
2018-11-27T19:59:08.137Z,27.52
2018-11-27T20:01:41.823Z,25.68
2018-11-27T20:04:14.453Z,25.75
2018-11-27T20:06:47.085Z,25.88
2018-11-27T20:09:19.749Z,23.80
2018-11-27T20:11:52.583Z,24.63
2018-11-27T20:14:25.245Z,23.47
2018-11-27T20:16:57.955Z,22.45
2018-11-27T20:19:30.784Z,22.85
2018-11-27T20:22:03.457Z,22.20
2018-11-27T20:24:36.170Z,22.70
2018-11-27T20:27:08.956Z,20.10
2018-11-27T20:29:41.640Z,22.40
2018-11-27T20:32:15.009Z,22.40
2018-11-27T20:34:47.188Z,22.35
2018-11-27T20:37:19.832Z,22.87
2018-11-27T20:39:52.582Z,23.12
2018-11-27T20:42:25.288Z,20.60
2018-11-27T20:44:58.029Z,20.97
2018-11-27T20:47:30.722Z,21.62
2018-11-27T20:50:03.826Z,23.05
2018-11-27T20:52:36.551Z,19.32
2018-11-27T20:55:09.311Z,19.65
2018-11-27T20:57:43.948Z,19.23
2018-11-27T21:00:20.092Z,23.22
2018-11-27T21:02:54.686Z,20.37
2018-11-27T21:05:27.325Z,21.68
2018-11-27T21:08:00.594Z,20.02
2018-11-27T21:10:33.199Z,21.48
2018-11-27T21:13:06.880Z,20.95
2018-11-27T21:15:40.909Z,24.75
2018-11-27T21:18:13.668Z,21.95
2018-11-27T21:20:46.476Z,21.20
2018-11-27T21:23:19.070Z,21.27
2018-11-27T21:25:56.391Z,22.35
2018-11-27T21:28:24.576Z,21.15
2018-11-27T21:30:57.282Z,21.20
2018-11-27T21:33:30.008Z,25.25
2018-11-27T21:36:02.745Z,22.17
2018-11-27T21:38:35.536Z,19.05
2018-11-27T21:41:08.181Z,21.23
2018-11-27T21:43:40.913Z,19.65
2018-11-27T21:46:13.694Z,20.77
2018-11-27T21:48:46.363Z,22.07
2018-11-27T21:51:19.106Z,19.30
2018-11-27T21:53:52.367Z,19.70
2018-11-27T21:56:26.288Z,21.97
2018-11-27T21:58:59.016Z,20.37
2018-11-27T22:01:31.710Z,18.35
2018-11-27T22:04:04.562Z,20.37
2018-11-27T22:06:37.239Z,20.48
2018-11-27T22:09:09.982Z,20.55
2018-11-27T22:11:42.720Z,22.07
2018-11-27T22:14:15.404Z,20.70
2018-11-27T22:16:48.007Z,21.20
2018-11-27T22:19:20.690Z,21.27
2018-11-27T22:21:53.375Z,20.97
2018-11-27T22:24:26.035Z,23.42
2018-11-27T22:26:58.715Z,21.90
2018-11-27T22:29:31.381Z,20.27
2018-11-27T22:32:04.855Z,20.82
2018-11-27T22:34:37.526Z,21.12
2018-11-27T22:37:10.215Z,21.65
2018-11-27T22:39:42.891Z,20.90
2018-11-27T22:42:15.497Z,20.00
2018-11-27T22:44:48.182Z,22.07
2018-11-27T22:47:20.897Z,21.68
2018-11-27T22:49:53.533Z,22.48
2018-11-27T22:52:26.110Z,21.95
2018-11-27T22:54:58.755Z,21.85
2018-11-27T22:57:31.445Z,19.70
2018-11-27T23:00:10.083Z,21.07
2018-11-27T23:02:42.848Z,21.30
2018-11-27T23:05:16.264Z,19.37
2018-11-27T23:07:48.967Z,20.32
2018-11-27T23:10:21.765Z,22.07
2018-11-27T23:12:54.404Z,21.30
2018-11-27T23:15:27.123Z,19.10
2018-11-27T23:17:59.843Z,21.52
2018-11-27T23:20:33.418Z,21.50
2018-11-27T23:23:06.114Z,20.75
2018-11-27T23:25:38.755Z,21.48
2018-11-27T23:28:11.414Z,21.30
2018-11-27T23:30:44.095Z,22.60
2018-11-27T23:33:16.811Z,20.32
2018-11-27T23:35:49.391Z,19.95
2018-11-27T23:38:22.091Z,18.95
2018-11-27T23:40:54.827Z,19.60
2018-11-27T23:43:27.491Z,20.45
2018-11-27T23:46:00.115Z,19.95
2018-11-27T23:48:32.751Z,20.40
2018-11-27T23:51:05.836Z,22.27
2018-11-27T23:53:38.393Z,21.45
2018-11-27T23:56:11.031Z,21.48
2018-11-27T23:58:43.657Z,18.45
